Time;durP1;ratioP1;P1;durP2;ratioP2;P2;SDS_P1;SDS_P2;PMS_P1;PMS_P2;Temp;Humidity;BMP_temperature;BMP_pressure;BME280_temperature;BME280_humidity;BME280_pressure;Samples;Min_cycle;Max_cycle;Signal;HPM_P1;HPM_P2
2023/12/25 00:02:06;;;;;;;6.03;1.13;;;;;;;;;;5013132;28;20053;-71
2023/12/25 00:04:32;;;;;;;5.28;1.02;;;;;;;;;;5016380;28;20492;-71
2023/12/25 00:06:57;;;;;;;3.40;0.80;;;;;;;;;;5016767;28;20022;-71
2023/12/25 00:09:22;;;;;;;1.50;0.70;;;;;;;;;;5016690;28;20255;-71
2023/12/25 00:11:47;;;;;;;2.15;0.88;;;;;;;;;;5016566;28;20259;-71
2023/12/25 00:14:12;;;;;;;1.20;0.80;;;;;;;;;;5016586;28;20104;-71
2023/12/25 00:16:39;;;;;;;1.77;0.90;;;;;;;;;;5016479;28;20704;-64
2023/12/25 00:19:05;;;;;;;1.77;0.60;;;;;;;;;;5016642;28;20240;-64
2023/12/25 00:21:30;;;;;;;2.83;0.90;;;;;;;;;;5016491;28;20030;-64
2023/12/25 00:23:55;;;;;;;3.13;0.90;;;;;;;;;;5016324;28;20271;-64
2023/12/25 00:26:21;;;;;;;4.28;1.10;;;;;;;;;;5022269;28;20018;-64
2023/12/25 00:28:46;;;;;;;5.73;1.23;;;;;;;;;;5028507;28;20014;-65
2023/12/25 00:31:11;;;;;;;3.53;1.20;;;;;;;;;;5034442;28;20826;-64
2023/12/25 00:33:36;;;;;;;3.47;1.00;;;;;;;;;;5028481;28;20026;-64
2023/12/25 00:36:01;;;;;;;3.47;1.50;;;;;;;;;;5028647;28;20034;-64
2023/12/25 00:38:27;;;;;;;2.25;0.82;;;;;;;;;;5032578;28;20331;-65
2023/12/25 00:40:52;;;;;;;1.77;0.73;;;;;;;;;;5033164;28;20032;-65
2023/12/25 00:43:17;;;;;;;3.25;1.30;;;;;;;;;;5031774;28;20094;-65
2023/12/25 00:45:43;;;;;;;4.40;1.45;;;;;;;;;;5031691;28;20032;-65
2023/12/25 00:48:08;;;;;;;2.03;0.90;;;;;;;;;;5024381;28;20100;-66
2023/12/25 00:50:33;;;;;;;2.00;0.90;;;;;;;;;;5019828;28;20324;-65
2023/12/25 00:52:58;;;;;;;3.30;0.97;;;;;;;;;;5030556;28;20025;-65
2023/12/25 00:55:23;;;;;;;2.07;1.00;;;;;;;;;;5033138;28;20515;-66
2023/12/25 00:57:49;;;;;;;4.73;1.50;;;;;;;;;;5033636;28;20358;-65
2023/12/25 01:00:14;;;;;;;0.93;0.90;;;;;;;;;;5030080;28;20288;-65
2023/12/25 01:02:39;;;;;;;3.67;1.25;;;;;;;;;;5032753;28;20033;-65
2023/12/25 01:05:05;;;;;;;5.03;1.15;;;;;;;;;;5027744;28;20040;-65
2023/12/25 01:07:30;;;;;;;4.43;1.40;;;;;;;;;;5031084;28;20021;-65
2023/12/25 01:09:55;;;;;;;3.80;1.00;;;;;;;;;;5034897;28;20023;-65
2023/12/25 01:12:20;;;;;;;7.77;0.90;;;;;;;;;;5035184;28;20247;-65
2023/12/25 01:14:46;;;;;;;3.75;1.00;;;;;;;;;;5034371;28;20270;-65
2023/12/25 01:17:11;;;;;;;3.03;1.15;;;;;;;;;;5035024;28;20026;-65
2023/12/25 01:19:36;;;;;;;1.27;1.00;;;;;;;;;;5033891;28;20021;-65
2023/12/25 01:22:02;;;;;;;2.57;1.07;;;;;;;;;;5033979;28;20350;-65
2023/12/25 01:24:27;;;;;;;4.32;1.58;;;;;;;;;;5034559;28;20279;-71
2023/12/25 01:26:52;;;;;;;4.57;1.30;;;;;;;;;;5034400;28;20025;-71
2023/12/25 01:29:17;;;;;;;4.05;1.30;;;;;;;;;;5034782;28;20249;-70
2023/12/25 01:31:43;;;;;;;2.50;1.20;;;;;;;;;;5034372;28;20480;-70
2023/12/25 01:34:08;;;;;;;4.45;1.35;;;;;;;;;;5033613;28;20757;-70
2023/12/25 01:36:35;;;;;;;3.10;1.38;;;;;;;;;;5034432;28;20029;-70
2023/12/25 01:39:01;;;;;;;4.28;1.40;;;;;;;;;;5023734;28;20021;-70
2023/12/25 01:41:26;;;;;;;5.50;1.42;;;;;;;;;;5014801;28;20037;-71
2023/12/25 01:43:51;;;;;;;2.50;1.20;;;;;;;;;;5035616;28;20124;-70
2023/12/25 01:46:16;;;;;;;5.27;1.80;;;;;;;;;;5041483;28;20262;-70
2023/12/25 01:48:42;;;;;;;2.43;1.10;;;;;;;;;;5032846;28;20614;-70
2023/12/25 01:51:07;;;;;;;5.53;1.10;;;;;;;;;;5033658;28;20255;-70
2023/12/25 01:53:33;;;;;;;11.32;1.23;;;;;;;;;;5029999;28;20477;-69
2023/12/25 01:55:58;;;;;;;3.58;1.58;;;;;;;;;;5032796;28;20036;-68
2023/12/25 01:58:23;;;;;;;4.75;1.40;;;;;;;;;;5032437;28;20104;-68
2023/12/25 02:00:49;;;;;;;2.47;1.33;;;;;;;;;;5032783;28;20025;-68
2023/12/25 02:03:14;;;;;;;2.70;1.00;;;;;;;;;;5032733;28;20300;-68
2023/12/25 02:05:39;;;;;;;3.03;1.27;;;;;;;;;;5032179;28;20327;-68
2023/12/25 02:08:05;;;;;;;8.00;1.38;;;;;;;;;;5032336;28;20239;-68
2023/12/25 02:10:30;;;;;;;1.83;1.27;;;;;;;;;;5027309;28;20037;-68
2023/12/25 02:12:56;;;;;;;5.63;1.20;;;;;;;;;;5032592;28;20071;-68
2023/12/25 02:15:22;;;;;;;3.88;1.15;;;;;;;;;;5032224;28;20052;-68
2023/12/25 02:17:48;;;;;;;3.53;1.25;;;;;;;;;;5032850;28;20389;-68
2023/12/25 02:20:14;;;;;;;6.00;1.30;;;;;;;;;;5032687;28;20028;-68
2023/12/25 02:22:40;;;;;;;2.55;1.00;;;;;;;;;;5032448;28;20029;-68
2023/12/25 02:25:07;;;;;;;3.03;1.23;;;;;;;;;;5026400;28;20024;-69
2023/12/25 02:27:33;;;;;;;5.30;1.13;;;;;;;;;;5029012;28;20017;-68
2023/12/25 02:29:58;;;;;;;1.45;0.98;;;;;;;;;;5032689;28;20466;-69
2023/12/25 02:32:23;;;;;;;5.93;1.40;;;;;;;;;;5032542;28;20023;-69
2023/12/25 02:34:48;;;;;;;3.20;1.20;;;;;;;;;;5032268;28;20481;-65
2023/12/25 02:37:14;;;;;;;3.35;0.95;;;;;;;;;;5031896;28;20258;-65
2023/12/25 02:39:39;;;;;;;2.42;1.00;;;;;;;;;;5032500;28;20022;-65
2023/12/25 02:42:05;;;;;;;3.63;0.95;;;;;;;;;;5030036;28;20385;-65
2023/12/25 02:44:30;;;;;;;3.40;1.30;;;;;;;;;;5031865;28;20065;-65
2023/12/25 02:46:55;;;;;;;3.67;1.30;;;;;;;;;;5032674;28;20020;-65
2023/12/25 02:49:20;;;;;;;4.07;1.00;;;;;;;;;;5032125;28;20304;-65
2023/12/25 02:51:46;;;;;;;2.53;1.00;;;;;;;;;;5032166;28;20374;-65
2023/12/25 02:54:11;;;;;;;1.47;0.87;;;;;;;;;;5031739;28;20802;-65
2023/12/25 02:56:36;;;;;;;0.70;0.70;;;;;;;;;;5032067;28;20794;-65
2023/12/25 02:59:01;;;;;;;2.42;1.02;;;;;;;;;;5031947;28;20408;-65
2023/12/25 03:01:27;;;;;;;2.65;0.82;;;;;;;;;;5029825;28;20028;-65
2023/12/25 03:03:52;;;;;;;3.83;1.10;;;;;;;;;;5031920;28;20044;-65
2023/12/25 03:06:17;;;;;;;1.50;0.93;;;;;;;;;;5032030;28;20253;-65
2023/12/25 03:08:42;;;;;;;1.47;0.90;;;;;;;;;;5031909;28;20253;-65
2023/12/25 03:11:07;;;;;;;1.57;0.97;;;;;;;;;;5031497;28;20591;-65
2023/12/25 03:13:34;;;;;;;4.03;1.35;;;;;;;;;;5031825;28;20806;-65
2023/12/25 03:16:03;;;;;;;2.67;1.20;;;;;;;;;;5028226;28;20505;-65
2023/12/25 03:18:28;;;;;;;3.08;1.00;;;;;;;;;;5030628;28;20516;-65
2023/12/25 03:20:54;;;;;;;3.00;1.17;;;;;;;;;;5031989;28;20046;-65
2023/12/25 03:23:19;;;;;;;1.50;1.00;;;;;;;;;;5031155;28;20341;-65
2023/12/25 03:25:44;;;;;;;1.63;1.03;;;;;;;;;;5031573;28;20032;-65
2023/12/25 03:28:09;;;;;;;3.27;1.07;;;;;;;;;;5031863;28;20681;-65
2023/12/25 03:30:35;;;;;;;8.60;1.27;;;;;;;;;;5031911;28;20051;-65
2023/12/25 03:33:00;;;;;;;2.20;1.23;;;;;;;;;;5031169;28;20262;-65
2023/12/25 03:35:25;;;;;;;2.33;1.23;;;;;;;;;;5032286;28;20151;-65
2023/12/25 03:37:51;;;;;;;5.10;1.47;;;;;;;;;;5032439;28;20357;-65
2023/12/25 03:40:16;;;;;;;2.97;0.97;;;;;;;;;;5035804;28;20021;-65
2023/12/25 03:42:41;;;;;;;7.83;1.40;;;;;;;;;;5035392;28;20259;-65
2023/12/25 03:45:06;;;;;;;1.95;1.10;;;;;;;;;;5035045;28;20278;-68
2023/12/25 03:47:32;;;;;;;2.75;1.00;;;;;;;;;;5035415;28;20021;-69
2023/12/25 03:49:57;;;;;;;6.28;1.30;;;;;;;;;;5033128;28;20413;-69
2023/12/25 03:52:22;;;;;;;6.00;1.37;;;;;;;;;;5035060;28;20014;-69
2023/12/25 03:54:47;;;;;;;3.00;1.23;;;;;;;;;;5035596;28;20407;-69
2023/12/25 03:57:12;;;;;;;2.90;0.93;;;;;;;;;;5035165;28;20730;-68
2023/12/25 03:59:39;;;;;;;3.57;1.20;;;;;;;;;;5035442;28;20254;-69
2023/12/25 04:02:04;;;;;;;4.15;1.20;;;;;;;;;;5035347;28;20258;-69
2023/12/25 04:04:29;;;;;;;2.40;1.03;;;;;;;;;;5035204;28;20552;-68
2023/12/25 04:06:54;;;;;;;3.93;1.67;;;;;;;;;;5034730;28;20411;-68
2023/12/25 04:09:19;;;;;;;2.37;1.03;;;;;;;;;;5034795;28;20315;-69
2023/12/25 04:11:45;;;;;;;1.63;0.80;;;;;;;;;;5035033;28;20308;-68
2023/12/25 04:14:10;;;;;;;2.60;0.95;;;;;;;;;;5035149;28;20257;-68
2023/12/25 04:16:35;;;;;;;1.63;0.60;;;;;;;;;;5034669;28;20056;-68
2023/12/25 04:19:01;;;;;;;2.30;1.10;;;;;;;;;;5034828;28;20265;-68
2023/12/25 04:21:33;;;;;;;2.88;1.20;;;;;;;;;;5034944;28;20025;-68
2023/12/25 04:23:59;;;;;;;1.52;1.10;;;;;;;;;;5033460;28;20057;-69
2023/12/25 04:26:25;;;;;;;5.65;1.30;;;;;;;;;;5035100;28;20372;-69
2023/12/25 04:28:51;;;;;;;4.57;1.20;;;;;;;;;;5034837;28;20025;-69
2023/12/25 04:31:16;;;;;;;3.40;0.90;;;;;;;;;;5034599;28;20022;-69
2023/12/25 04:33:42;;;;;;;1.35;0.93;;;;;;;;;;5034578;28;20036;-69
2023/12/25 04:36:07;;;;;;;3.67;1.10;;;;;;;;;;5034382;28;20178;-68
2023/12/25 04:38:33;;;;;;;4.15;1.10;;;;;;;;;;5034093;28;20086;-68
2023/12/25 04:40:58;;;;;;;2.40;1.02;;;;;;;;;;5027950;28;20033;-69
2023/12/25 04:43:23;;;;;;;2.22;1.13;;;;;;;;;;5034698;28;20020;-68
2023/12/25 04:45:49;;;;;;;4.77;1.40;;;;;;;;;;5032859;28;20033;-69
2023/12/25 04:48:14;;;;;;;2.70;1.13;;;;;;;;;;5033749;28;20025;-69
2023/12/25 04:50:40;;;;;;;3.63;1.20;;;;;;;;;;5033855;28;20013;-68
2023/12/25 04:53:05;;;;;;;1.17;0.80;;;;;;;;;;5034237;28;20440;-69
2023/12/25 04:55:31;;;;;;;1.83;0.90;;;;;;;;;;5033864;28;20026;-65
2023/12/25 04:57:57;;;;;;;2.88;1.55;;;;;;;;;;5031782;28;20761;-65
2023/12/25 05:00:22;;;;;;;8.17;1.63;;;;;;;;;;5034120;28;20022;-65
2023/12/25 05:02:47;;;;;;;1.70;1.10;;;;;;;;;;5034533;28;20041;-65
2023/12/25 05:05:12;;;;;;;4.45;1.30;;;;;;;;;;5034037;28;20104;-65
2023/12/25 05:07:38;;;;;;;3.70;1.33;;;;;;;;;;5033847;28;20035;-65
2023/12/25 05:10:03;;;;;;;2.63;1.20;;;;;;;;;;5034424;28;20297;-65
2023/12/25 05:12:28;;;;;;;1.95;1.42;;;;;;;;;;5024781;28;20097;-65
2023/12/25 05:14:53;;;;;;;4.67;1.17;;;;;;;;;;5027064;28;20046;-65
2023/12/25 05:17:19;;;;;;;4.35;1.40;;;;;;;;;;5033717;28;20277;-65
2023/12/25 05:19:44;;;;;;;4.53;1.60;;;;;;;;;;5033890;28;20025;-65
2023/12/25 05:22:09;;;;;;;7.17;1.57;;;;;;;;;;5033473;28;20255;-65
2023/12/25 05:24:34;;;;;;;4.37;1.13;;;;;;;;;;5033742;28;20271;-65
2023/12/25 05:27:00;;;;;;;2.23;1.13;;;;;;;;;;5033619;28;20254;-65
2023/12/25 05:29:25;;;;;;;5.13;1.50;;;;;;;;;;5028322;28;20254;-65
2023/12/25 05:31:50;;;;;;;3.53;1.05;;;;;;;;;;5032989;28;20626;-65
2023/12/25 05:34:15;;;;;;;4.47;1.30;;;;;;;;;;5033281;28;20030;-65
2023/12/25 05:36:40;;;;;;;2.28;1.20;;;;;;;;;;5033220;28;20258;-65
2023/12/25 05:39:06;;;;;;;7.20;1.97;;;;;;;;;;5033395;28;20032;-66
2023/12/25 05:41:31;;;;;;;6.47;1.23;;;;;;;;;;5033285;28;20265;-65
2023/12/25 05:43:57;;;;;;;2.10;1.20;;;;;;;;;;5032223;28;20036;-65
2023/12/25 05:46:22;;;;;;;7.23;1.50;;;;;;;;;;5033154;28;20032;-65
2023/12/25 05:48:47;;;;;;;3.63;1.42;;;;;;;;;;5032599;28;20615;-65
2023/12/25 05:51:12;;;;;;;3.93;1.40;;;;;;;;;;5032652;28;20025;-65
2023/12/25 05:53:37;;;;;;;10.52;1.58;;;;;;;;;;5033221;28;20029;-65
2023/12/25 05:56:03;;;;;;;8.60;1.80;;;;;;;;;;5032944;28;20029;-65
2023/12/25 05:58:29;;;;;;;2.92;1.30;;;;;;;;;;5032928;28;20369;-65
2023/12/25 06:00:54;;;;;;;5.40;1.58;;;;;;;;;;5030648;28;20033;-66
2023/12/25 06:03:19;;;;;;;3.50;1.20;;;;;;;;;;5032772;28;20029;-65
2023/12/25 06:05:45;;;;;;;8.03;1.10;;;;;;;;;;5032936;28;20247;-67
2023/12/25 06:08:10;;;;;;;7.22;1.60;;;;;;;;;;5032927;28;20260;-67
2023/12/25 06:10:35;;;;;;;11.90;1.90;;;;;;;;;;5032639;28;20466;-67
2023/12/25 06:13:00;;;;;;;4.57;1.30;;;;;;;;;;5032552;28;20669;-68
2023/12/25 06:15:25;;;;;;;5.57;1.30;;;;;;;;;;5027404;28;20337;-67
2023/12/25 06:17:51;;;;;;;7.00;1.42;;;;;;;;;;5032912;28;20266;-67
2023/12/25 06:20:16;;;;;;;5.57;1.53;;;;;;;;;;5032576;28;20388;-68
2023/12/25 06:22:41;;;;;;;2.25;1.25;;;;;;;;;;5032607;28;20746;-67
2023/12/25 06:25:07;;;;;;;2.33;1.20;;;;;;;;;;5032430;28;20071;-67
2023/12/25 06:27:32;;;;;;;4.82;1.67;;;;;;;;;;5032124;28;20259;-67
2023/12/25 06:29:57;;;;;;;5.30;1.67;;;;;;;;;;5031551;28;20025;-67
2023/12/25 06:32:23;;;;;;;6.07;1.20;;;;;;;;;;5032636;28;20243;-68
2023/12/25 06:34:48;;;;;;;7.13;1.20;;;;;;;;;;5032824;28;20258;-67
2023/12/25 06:37:13;;;;;;;6.53;1.67;;;;;;;;;;5032445;28;20255;-68
2023/12/25 06:39:38;;;;;;;1.43;1.10;;;;;;;;;;5032468;28;20262;-68
2023/12/25 06:42:03;;;;;;;7.07;1.10;;;;;;;;;;5028202;28;20275;-68
2023/12/25 06:44:29;;;;;;;3.38;1.27;;;;;;;;;;5032022;28;20286;-68
2023/12/25 06:46:54;;;;;;;3.30;1.35;;;;;;;;;;5028985;28;20029;-68
2023/12/25 06:49:19;;;;;;;6.80;1.37;;;;;;;;;;5030793;28;20014;-68
2023/12/25 06:51:45;;;;;;;4.70;1.45;;;;;;;;;;5030767;28;20600;-67
2023/12/25 06:54:11;;;;;;;4.85;1.38;;;;;;;;;;5030624;28;20108;-67
2023/12/25 06:56:37;;;;;;;5.15;1.60;;;;;;;;;;5029628;28;20079;-67
2023/12/25 06:59:02;;;;;;;2.83;1.20;;;;;;;;;;5030871;28;20029;-68
2023/12/25 07:01:27;;;;;;;3.23;1.03;;;;;;;;;;5028139;28;20274;-67
2023/12/25 07:03:52;;;;;;;2.38;1.10;;;;;;;;;;5026832;28;20379;-68
2023/12/25 07:06:18;;;;;;;2.28;1.00;;;;;;;;;;5031373;28;20049;-68
2023/12/25 07:08:43;;;;;;;3.85;1.35;;;;;;;;;;5031091;28;20071;-68
2023/12/25 07:11:08;;;;;;;3.55;1.27;;;;;;;;;;5030661;28;20029;-68
2023/12/25 07:13:34;;;;;;;10.47;1.40;;;;;;;;;;5030387;28;20021;-68
2023/12/25 07:16:00;;;;;;;4.65;1.55;;;;;;;;;;5030000;28;20646;-68
2023/12/25 07:18:26;;;;;;;3.40;1.10;;;;;;;;;;5027842;28;20077;-67
2023/12/25 07:20:52;;;;;;;1.43;1.00;;;;;;;;;;5030363;28;20099;-68
2023/12/25 07:23:18;;;;;;;6.23;1.40;;;;;;;;;;5030786;28;20247;-68
2023/12/25 07:25:44;;;;;;;4.25;1.35;;;;;;;;;;5030630;28;20275;-67
2023/12/25 07:28:10;;;;;;;2.28;1.23;;;;;;;;;;5029366;28;20022;-68
2023/12/25 07:30:35;;;;;;;6.85;1.35;;;;;;;;;;5030522;28;20027;-68
2023/12/25 07:33:00;;;;;;;2.15;1.00;;;;;;;;;;5025539;28;20014;-67
2023/12/25 07:35:26;;;;;;;2.60;1.07;;;;;;;;;;5029829;28;20059;-67
2023/12/25 07:37:51;;;;;;;2.03;0.90;;;;;;;;;;5030640;28;20261;-68
2023/12/25 07:40:17;;;;;;;3.90;0.88;;;;;;;;;;5030781;28;20037;-68
2023/12/25 07:42:43;;;;;;;4.50;1.00;;;;;;;;;;5030052;28;20024;-68
2023/12/25 07:45:11;;;;;;;1.00;0.68;;;;;;;;;;5030494;28;20286;-68
2023/12/25 07:47:36;;;;;;;2.05;0.80;;;;;;;;;;5029452;28;20022;-68
2023/12/25 07:50:03;;;;;;;3.20;0.90;;;;;;;;;;5028302;28;20014;-67
2023/12/25 07:52:28;;;;;;;0.60;0.60;;;;;;;;;;5030660;28;20251;-67
2023/12/25 07:54:55;;;;;;;0.60;0.60;;;;;;;;;;5029227;28;20028;-68
2023/12/25 07:57:21;;;;;;;1.02;0.70;;;;;;;;;;5030262;28;20618;-68
2023/12/25 07:59:47;;;;;;;0.63;0.60;;;;;;;;;;5030301;28;20034;-68
2023/12/25 08:02:13;;;;;;;0.85;0.77;;;;;;;;;;5030175;28;20021;-68
2023/12/25 08:04:38;;;;;;;0.70;0.60;;;;;;;;;;5029995;28;20036;-67
2023/12/25 08:07:03;;;;;;;1.57;0.80;;;;;;;;;;5025826;28;20068;-67
2023/12/25 08:09:28;;;;;;;1.63;0.80;;;;;;;;;;5030599;28;20104;-68
2023/12/25 08:11:54;;;;;;;1.50;0.73;;;;;;;;;;5017274;28;20029;-69
2023/12/25 08:14:19;;;;;;;1.58;0.93;;;;;;;;;;5029398;28;20743;-69
2023/12/25 08:16:44;;;;;;;1.63;0.90;;;;;;;;;;5029687;28;20073;-69
2023/12/25 08:19:10;;;;;;;2.72;0.93;;;;;;;;;;5030620;28;20034;-69
2023/12/25 08:21:35;;;;;;;3.13;0.82;;;;;;;;;;5030112;28;20101;-68
2023/12/25 08:24:00;;;;;;;1.48;0.73;;;;;;;;;;5022108;28;20029;-69
2023/12/25 08:26:25;;;;;;;0.70;0.60;;;;;;;;;;5026655;28;20024;-69
2023/12/25 08:28:52;;;;;;;1.00;0.70;;;;;;;;;;5032434;28;20028;-69
2023/12/25 08:31:17;;;;;;;0.63;0.63;;;;;;;;;;5032128;28;20104;-68
2023/12/25 08:33:42;;;;;;;0.65;0.50;;;;;;;;;;5032314;28;20561;-69
2023/12/25 08:36:08;;;;;;;1.07;0.60;;;;;;;;;;5032984;28;20021;-69
2023/12/25 08:38:33;;;;;;;1.50;0.95;;;;;;;;;;5030812;28;20259;-69
2023/12/25 08:40:58;;;;;;;0.80;0.80;;;;;;;;;;5030933;28;20370;-69
2023/12/25 08:43:23;;;;;;;1.93;0.60;;;;;;;;;;5031856;28;20750;-68
2023/12/25 08:45:49;;;;;;;1.70;0.75;;;;;;;;;;5032534;28;20270;-67
2023/12/25 08:48:15;;;;;;;1.50;0.83;;;;;;;;;;5032678;28;20044;-69
2023/12/25 08:50:40;;;;;;;1.75;0.70;;;;;;;;;;5031725;28;20270;-69
2023/12/25 08:53:05;;;;;;;1.15;0.70;;;;;;;;;;5032102;28;20580;-68
2023/12/25 08:55:31;;;;;;;2.08;0.77;;;;;;;;;;5032090;28;20025;-68
2023/12/25 08:57:56;;;;;;;1.98;0.82;;;;;;;;;;5030690;28;20052;-69
2023/12/25 09:00:21;;;;;;;3.03;0.80;;;;;;;;;;5032426;28;20029;-69
2023/12/25 09:02:47;;;;;;;1.00;0.53;;;;;;;;;;5032280;28;20271;-69
2023/12/25 09:05:12;;;;;;;1.03;0.80;;;;;;;;;;5031213;28;20903;-69
2023/12/25 09:07:37;;;;;;;1.37;0.70;;;;;;;;;;5031591;28;20263;-69
2023/12/25 09:10:04;;;;;;;2.20;1.17;;;;;;;;;;5031008;28;20274;-69
2023/12/25 09:12:29;;;;;;;1.30;0.80;;;;;;;;;;5027408;28;20045;-69
2023/12/25 09:14:55;;;;;;;1.03;0.57;;;;;;;;;;5032042;28;20088;-68
2023/12/25 09:17:20;;;;;;;1.33;0.80;;;;;;;;;;5031377;28;20349;-69
2023/12/25 09:19:46;;;;;;;1.87;0.60;;;;;;;;;;5032345;28;20033;-69
2023/12/25 09:22:12;;;;;;;0.85;0.70;;;;;;;;;;5032160;28;20309;-69
2023/12/25 09:24:38;;;;;;;2.05;0.82;;;;;;;;;;5030784;28;20037;-69
2023/12/25 09:27:03;;;;;;;0.50;0.50;;;;;;;;;;5031178;28;20559;-69
2023/12/25 09:29:29;;;;;;;0.70;0.70;;;;;;;;;;5030287;28;20018;-68
2023/12/25 09:31:54;;;;;;;0.75;0.60;;;;;;;;;;5031204;28;20021;-69
2023/12/25 09:34:19;;;;;;;3.45;0.68;;;;;;;;;;5031627;28;20021;-68
2023/12/25 09:36:44;;;;;;;1.40;0.77;;;;;;;;;;5031101;28;20041;-70
2023/12/25 09:39:10;;;;;;;1.17;0.57;;;;;;;;;;5031291;28;20104;-69
2023/12/25 09:41:36;;;;;;;0.80;0.70;;;;;;;;;;5031095;28;20302;-68
2023/12/25 09:44:01;;;;;;;0.98;0.70;;;;;;;;;;5024526;28;20044;-68
2023/12/25 09:46:27;;;;;;;1.75;0.80;;;;;;;;;;5031671;28;20013;-69
2023/12/25 09:48:54;;;;;;;0.90;0.70;;;;;;;;;;5031296;28;20021;-69
2023/12/25 09:51:21;;;;;;;1.00;0.70;;;;;;;;;;5030086;28;20025;-68
2023/12/25 09:53:46;;;;;;;2.00;0.70;;;;;;;;;;5031125;28;20100;-69
2023/12/25 09:56:12;;;;;;;0.70;0.50;;;;;;;;;;5028701;28;20576;-68
2023/12/25 09:58:38;;;;;;;0.70;0.70;;;;;;;;;;5029871;28;20416;-69
2023/12/25 10:01:04;;;;;;;0.60;0.50;;;;;;;;;;5030074;28;20017;-69
2023/12/25 10:03:29;;;;;;;1.67;1.00;;;;;;;;;;5031091;28;20065;-69
2023/12/25 10:05:54;;;;;;;0.50;0.50;;;;;;;;;;5030733;28;20053;-69
2023/12/25 10:08:20;;;;;;;2.33;0.80;;;;;;;;;;5029639;28;20112;-69
2023/12/25 10:10:48;;;;;;;0.57;0.57;;;;;;;;;;5029323;28;20029;-69
2023/12/25 10:13:13;;;;;;;1.30;0.85;;;;;;;;;;5029583;28;20492;-69
2023/12/25 10:15:38;;;;;;;2.00;0.70;;;;;;;;;;5030625;28;20041;-69
2023/12/25 10:18:04;;;;;;;0.93;0.70;;;;;;;;;;5028076;28;20022;-69
2023/12/25 10:20:29;;;;;;;1.92;0.68;;;;;;;;;;5025954;28;20088;-69
2023/12/25 10:22:55;;;;;;;0.88;0.65;;;;;;;;;;5026633;28;20022;-68
2023/12/25 10:25:24;;;;;;;0.82;0.75;;;;;;;;;;5031841;28;20377;-69
2023/12/25 10:27:50;;;;;;;0.40;0.40;;;;;;;;;;5030385;28;20021;-68
2023/12/25 10:30:27;;;;;;;0.68;0.57;;;;;;;;;;5031389;28;20470;-68
2023/12/25 10:33:12;;;;;;;0.88;0.70;;;;;;;;;;5025455;28;20031;-69
2023/12/25 10:35:38;;;;;;;0.68;0.60;;;;;;;;;;5028841;28;20457;-69
2023/12/25 10:38:03;;;;;;;0.55;0.47;;;;;;;;;;5031264;28;20096;-69
2023/12/25 10:40:31;;;;;;;1.75;0.60;;;;;;;;;;5031502;28;20036;-69
2023/12/25 10:42:56;;;;;;;0.50;0.50;;;;;;;;;;5031102;28;20487;-69
2023/12/25 10:45:26;;;;;;;0.98;0.52;;;;;;;;;;5024158;28;20116;-66
2023/12/25 10:47:55;;;;;;;1.05;0.70;;;;;;;;;;5030454;28;20032;-66
2023/12/25 10:50:22;;;;;;;1.58;0.70;;;;;;;;;;5030508;28;20071;-66
2023/12/25 10:52:48;;;;;;;0.57;0.57;;;;;;;;;;5030891;28;20025;-66
2023/12/25 10:55:15;;;;;;;0.50;0.50;;;;;;;;;;5031329;28;20030;-65
2023/12/25 10:57:40;;;;;;;0.98;0.60;;;;;;;;;;5032928;28;20021;-65
2023/12/25 11:00:10;;;;;;;1.20;0.68;;;;;;;;;;5028859;28;20108;-65
2023/12/25 11:02:38;;;;;;;1.45;0.90;;;;;;;;;;5026976;28;20026;-66
2023/12/25 11:05:03;;;;;;;1.35;0.80;;;;;;;;;;5030571;28;20045;-65
2023/12/25 11:07:28;;;;;;;0.50;0.50;;;;;;;;;;5022946;28;20247;-65
2023/12/25 11:09:55;;;;;;;0.82;0.60;;;;;;;;;;5028275;28;20052;-66
2023/12/25 11:12:21;;;;;;;2.60;0.60;;;;;;;;;;5029167;28;20437;-66
2023/12/25 11:14:46;;;;;;;1.08;0.70;;;;;;;;;;5030125;28;20087;-65
2023/12/25 11:17:11;;;;;;;2.57;0.60;;;;;;;;;;5030224;28;20037;-66
2023/12/25 11:19:36;;;;;;;1.00;0.70;;;;;;;;;;5028703;28;20277;-65
2023/12/25 11:22:21;;;;;;;2.93;0.83;;;;;;;;;;5030026;28;20281;-65
2023/12/25 11:24:47;;;;;;;1.80;0.80;;;;;;;;;;5028447;28;20270;-66
2023/12/25 11:27:16;;;;;;;1.40;0.63;;;;;;;;;;5029338;28;20028;-66
2023/12/25 11:29:41;;;;;;;1.08;0.65;;;;;;;;;;5028764;28;20286;-66
2023/12/25 11:32:07;;;;;;;0.50;0.50;;;;;;;;;;5029712;28;20473;-66
2023/12/25 11:34:38;;;;;;;1.20;0.85;;;;;;;;;;5029612;28;20021;-65
2023/12/25 11:37:16;;;;;;;0.52;0.52;;;;;;;;;;5028650;28;20032;-66
2023/12/25 11:39:47;;;;;;;1.20;0.80;;;;;;;;;;5030252;28;20079;-65
2023/12/25 11:42:12;;;;;;;0.60;0.57;;;;;;;;;;5028144;28;20037;-66
2023/12/25 11:44:38;;;;;;;5.90;0.83;;;;;;;;;;5029911;28;20022;-65
2023/12/25 11:47:03;;;;;;;0.60;0.60;;;;;;;;;;5029895;28;20273;-66
2023/12/25 11:49:31;;;;;;;1.20;0.70;;;;;;;;;;5029570;28;20175;-65
2023/12/25 11:51:57;;;;;;;0.75;0.52;;;;;;;;;;5030035;28;20026;-65
2023/12/25 11:54:27;;;;;;;2.65;0.90;;;;;;;;;;5029386;28;20025;-66
2023/12/25 11:56:53;;;;;;;0.43;0.43;;;;;;;;;;5027825;28;20388;-68
2023/12/25 11:59:18;;;;;;;1.98;0.57;;;;;;;;;;5030882;28;20021;-67
2023/12/25 12:01:44;;;;;;;0.65;0.40;;;;;;;;;;5032428;28;20029;-67
2023/12/25 12:04:09;;;;;;;0.73;0.70;;;;;;;;;;5033179;28;20033;-67
2023/12/25 12:06:34;;;;;;;0.50;0.47;;;;;;;;;;5033803;28;20025;-67
2023/12/25 12:08:59;;;;;;;1.15;0.90;;;;;;;;;;5031875;28;20389;-67
2023/12/25 12:11:25;;;;;;;4.97;0.63;;;;;;;;;;5031646;28;20052;-67
2023/12/25 12:13:51;;;;;;;0.60;0.60;;;;;;;;;;5028378;28;20341;-67
2023/12/25 12:16:17;;;;;;;1.35;0.65;;;;;;;;;;5030864;28;20029;-67
2023/12/25 12:18:42;;;;;;;1.33;0.70;;;;;;;;;;5031391;28;20033;-67
2023/12/25 12:21:07;;;;;;;0.90;0.80;;;;;;;;;;5027629;28;20478;-68
2023/12/25 12:23:33;;;;;;;0.95;0.52;;;;;;;;;;5031876;28;20344;-67
2023/12/25 12:25:59;;;;;;;0.98;0.68;;;;;;;;;;5034290;28;20072;-67
2023/12/25 12:28:24;;;;;;;2.58;0.80;;;;;;;;;;5031896;28;20560;-74
2023/12/25 12:30:49;;;;;;;2.00;0.70;;;;;;;;;;5034525;28;20036;-69
2023/12/25 12:33:16;;;;;;;0.43;0.43;;;;;;;;;;5034927;28;20295;-73
2023/12/25 12:35:41;;;;;;;0.40;0.40;;;;;;;;;;5025897;28;20024;-68
2023/12/25 12:38:06;;;;;;;0.50;0.50;;;;;;;;;;5032622;28;20029;-69
2023/12/25 12:40:32;;;;;;;1.13;0.50;;;;;;;;;;5031853;28;20017;-69
2023/12/25 12:42:57;;;;;;;1.35;0.65;;;;;;;;;;5032411;28;20232;-69
2023/12/25 12:45:22;;;;;;;0.68;0.60;;;;;;;;;;5032932;28;20381;-69
2023/12/25 12:47:52;;;;;;;0.80;0.50;;;;;;;;;;5025521;28;20026;-70
2023/12/25 12:50:18;;;;;;;1.65;0.75;;;;;;;;;;5032989;28;20017;-68
2023/12/25 12:52:43;;;;;;;0.80;0.57;;;;;;;;;;5032429;28;20155;-68
2023/12/25 12:55:08;;;;;;;0.73;0.40;;;;;;;;;;5032422;28;20142;-68
2023/12/25 12:57:34;;;;;;;4.63;0.70;;;;;;;;;;5032565;28;20258;-68
2023/12/25 12:59:59;;;;;;;0.60;0.50;;;;;;;;;;5031640;28;20108;-69
2023/12/25 13:02:24;;;;;;;3.33;0.57;;;;;;;;;;5031989;28;20040;-69
2023/12/25 13:04:50;;;;;;;1.23;0.68;;;;;;;;;;5030942;28;20029;-69
2023/12/25 13:07:15;;;;;;;0.50;0.50;;;;;;;;;;5031554;28;20017;-69
2023/12/25 13:09:40;;;;;;;0.68;0.60;;;;;;;;;;5032038;28;20372;-69
2023/12/25 13:12:06;;;;;;;2.28;0.82;;;;;;;;;;5032116;28;20465;-69
2023/12/25 13:14:31;;;;;;;2.15;0.75;;;;;;;;;;5031041;28;20029;-69
2023/12/25 13:16:57;;;;;;;1.30;0.73;;;;;;;;;;5032191;28;20018;-69
2023/12/25 13:19:22;;;;;;;1.50;0.50;;;;;;;;;;5025262;28;20017;-69
2023/12/25 13:21:47;;;;;;;1.08;0.65;;;;;;;;;;5031413;28;20053;-68
2023/12/25 13:24:12;;;;;;;0.50;0.50;;;;;;;;;;5032018;28;20429;-69
2023/12/25 13:26:38;;;;;;;1.55;0.90;;;;;;;;;;5031440;28;20020;-68
2023/12/25 13:29:03;;;;;;;2.80;0.70;;;;;;;;;;5031477;28;20010;-69
2023/12/25 13:31:29;;;;;;;1.48;0.70;;;;;;;;;;5031423;28;20024;-69
2023/12/25 13:33:54;;;;;;;0.57;0.57;;;;;;;;;;5030840;28;20017;-69
2023/12/25 13:36:19;;;;;;;1.97;0.70;;;;;;;;;;5023554;28;20029;-69
2023/12/25 13:38:45;;;;;;;0.50;0.50;;;;;;;;;;5031807;28;20310;-69
2023/12/25 13:41:10;;;;;;;1.43;0.63;;;;;;;;;;5031042;28;20032;-69
2023/12/25 13:43:35;;;;;;;4.10;0.70;;;;;;;;;;5030364;28;20380;-75
2023/12/25 13:46:00;;;;;;;1.05;0.70;;;;;;;;;;5028099;28;20032;-66
2023/12/25 13:48:27;;;;;;;3.03;0.90;;;;;;;;;;5028455;28;20017;-68
2023/12/25 13:50:52;;;;;;;1.75;0.75;;;;;;;;;;5023613;28;20033;-67
2023/12/25 13:53:17;;;;;;;1.40;0.80;;;;;;;;;;5032347;28;20040;-68
2023/12/25 13:55:43;;;;;;;0.85;0.75;;;;;;;;;;5032064;28;20025;-68
2023/12/25 13:58:08;;;;;;;3.30;0.80;;;;;;;;;;5028875;28;20021;-68
2023/12/25 14:00:34;;;;;;;0.93;0.70;;;;;;;;;;5032499;28;20469;-69
2023/12/25 14:02:59;;;;;;;4.83;1.03;;;;;;;;;;5024990;28;20051;-68
2023/12/25 14:05:24;;;;;;;1.40;0.73;;;;;;;;;;5031590;28;20285;-69
2023/12/25 14:07:50;;;;;;;3.38;0.75;;;;;;;;;;5030356;28;20465;-68
2023/12/25 14:10:15;;;;;;;2.28;0.77;;;;;;;;;;5032680;28;20045;-69
2023/12/25 14:12:40;;;;;;;0.80;0.80;;;;;;;;;;5030646;28;20095;-68
2023/12/25 14:15:06;;;;;;;2.73;1.07;;;;;;;;;;5031901;28;20052;-68
2023/12/25 14:17:31;;;;;;;1.08;0.98;;;;;;;;;;5032353;28;20270;-68
2023/12/25 14:19:56;;;;;;;1.92;1.00;;;;;;;;;;5030435;28;20026;-69
2023/12/25 14:22:22;;;;;;;1.23;0.90;;;;;;;;;;5026091;28;20100;-69
2023/12/25 14:24:47;;;;;;;1.95;1.00;;;;;;;;;;5030139;28;20069;-68
2023/12/25 14:27:12;;;;;;;1.77;0.90;;;;;;;;;;5031342;28;20461;-68
2023/12/25 14:29:38;;;;;;;1.67;1.02;;;;;;;;;;5030408;28;20610;-68
2023/12/25 14:32:03;;;;;;;0.70;0.70;;;;;;;;;;5030720;28;20119;-68
2023/12/25 14:34:29;;;;;;;1.38;0.70;;;;;;;;;;5031682;28;20512;-69